Oakhill, Alabama
Current Conditions -  °F | °C
As of 4:56 AM on Saturday 20 Dec 2014 (Local Time) from KPRN Reporting Station
Light Rain Light Rain  
Wind Chill: 42°   Ceiling: 300
Heat Index: 45°   Visibility: 6mi
Dew Point: 43°   Wind: 6mph
Humidity: 93%   Direction: 60°ENE
Pressure: 30.11"   Gusts: NA
Location:  31.9217°N, 87.0814°W
Report Text: KPRN 201056Z AUTO 06005KT 6SM -RA BR OVC003 07/06 A3011 RMK AO2 SLP197 P0005 T00720061
Loading
Personal Weather Stations






























Interactive Weather Map New forecast layout! Learn more

10-Day Weather Forecast

Advertisements
Track Severe Weather on mobile